createdAt,value
2017-09-27T00:00:04.130Z,61.35
2017-09-27T00:01:06.859Z,58.22
2017-09-27T00:02:09.420Z,60.10
2017-09-27T00:03:12.817Z,58.22
2017-09-27T00:04:15.338Z,63.92
2017-09-27T00:05:18.043Z,58.45
2017-09-27T00:06:20.668Z,59.85
2017-09-27T00:07:23.416Z,55.90
2017-09-27T00:08:26.673Z,57.28
2017-09-27T00:09:29.873Z,58.10
2017-09-27T00:10:32.805Z,58.85
2017-09-27T00:11:36.864Z,54.80
2017-09-27T00:12:39.437Z,58.90
2017-09-27T00:13:42.979Z,58.83
2017-09-27T00:14:45.467Z,57.15
2017-09-27T00:15:48.199Z,55.63
2017-09-27T00:16:50.772Z,57.20
2017-09-27T00:17:53.840Z,58.22
2017-09-27T00:18:56.375Z,56.22
2017-09-27T00:20:00.064Z,54.13
2017-09-27T00:21:03.327Z,55.78
2017-09-27T00:22:06.935Z,55.72
2017-09-27T00:23:09.440Z,57.88
2017-09-27T00:24:13.294Z,54.80
2017-09-27T00:25:15.811Z,55.58
2017-09-27T00:26:20.366Z,54.08
2017-09-27T00:27:22.848Z,55.58
2017-09-27T00:28:26.687Z,51.42
2017-09-27T00:29:29.342Z,53.08
2017-09-27T00:30:31.983Z,53.53
2017-09-27T00:31:34.584Z,53.67
2017-09-27T00:32:37.328Z,52.13
2017-09-27T00:33:40.229Z,54.25
2017-09-27T00:34:45.024Z,54.13
2017-09-27T00:35:48.524Z,57.88
2017-09-27T00:36:52.223Z,54.72
2017-09-27T00:38:04.489Z,56.85
2017-09-27T00:39:07.096Z,56.60
2017-09-27T00:40:09.847Z,55.63
2017-09-27T00:41:13.114Z,53.08
2017-09-27T00:42:15.798Z,55.25
2017-09-27T00:43:19.116Z,57.00
2017-09-27T00:44:21.877Z,52.13
2017-09-27T00:45:24.358Z,54.03
2017-09-27T00:46:27.115Z,55.55
2017-09-27T00:47:29.614Z,55.03
2017-09-27T00:48:33.328Z,52.30
2017-09-27T00:49:35.871Z,54.38
2017-09-27T00:50:38.726Z,53.97
2017-09-27T00:51:41.231Z,55.25
2017-09-27T00:52:45.827Z,53.95
2017-09-27T00:53:48.332Z,56.00
2017-09-27T00:55:02.200Z,51.90
2017-09-27T00:56:04.756Z,56.15
2017-09-27T00:57:09.918Z,57.55
2017-09-27T00:58:12.656Z,56.10
2017-09-27T00:59:15.405Z,55.03
2017-09-27T01:00:18.698Z,53.00
2017-09-27T01:01:24.093Z,59.83
2017-09-27T01:02:26.709Z,53.58
2017-09-27T01:03:30.027Z,55.53
2017-09-27T01:04:32.571Z,55.90
2017-09-27T01:05:35.406Z,56.35
2017-09-27T01:06:38.841Z,55.90
2017-09-27T01:07:41.696Z,55.88
2017-09-27T01:08:44.205Z,55.83
2017-09-27T01:09:47.275Z,58.83
2017-09-27T01:10:49.891Z,57.72
2017-09-27T01:11:55.082Z,57.42
2017-09-27T01:12:59.116Z,57.45
2017-09-27T01:14:03.489Z,60.63
2017-09-27T01:15:06.016Z,60.42
2017-09-27T01:16:12.864Z,56.22
2017-09-27T01:17:16.307Z,59.40
2017-09-27T01:18:19.123Z,56.20
2017-09-27T01:19:21.638Z,58.75
2017-09-27T01:20:24.848Z,56.05
2017-09-27T01:21:27.376Z,57.50
2017-09-27T01:22:31.063Z,54.90
2017-09-27T01:23:33.618Z,57.95
2017-09-27T01:24:36.204Z,55.25
2017-09-27T01:25:38.720Z,59.35
2017-09-27T01:26:42.343Z,58.17
2017-09-27T01:27:44.885Z,58.58
2017-09-27T01:28:48.407Z,56.58
2017-09-27T01:29:51.428Z,61.25
2017-09-27T01:30:54.409Z,61.03
2017-09-27T01:31:56.949Z,60.08
2017-09-27T01:33:00.798Z,55.50
2017-09-27T01:34:04.100Z,57.00
2017-09-27T01:35:09.810Z,60.17
2017-09-27T01:36:13.209Z,55.40
2017-09-27T01:37:16.718Z,56.92
2017-09-27T01:38:19.860Z,59.78
2017-09-27T01:39:22.670Z,58.05
2017-09-27T01:40:25.233Z,61.95
2017-09-27T01:41:28.675Z,57.50
2017-09-27T01:42:31.190Z,63.10
2017-09-27T01:43:33.940Z,60.60
2017-09-27T01:44:37.298Z,60.33
2017-09-27T01:45:39.888Z,57.88
2017-09-27T01:46:43.204Z,56.95
2017-09-27T01:47:45.829Z,63.10
2017-09-27T01:48:48.333Z,61.03
2017-09-27T01:49:51.206Z,60.58
2017-09-27T01:50:53.784Z,59.30
2017-09-27T01:51:57.371Z,61.55
2017-09-27T01:52:59.868Z,58.10
2017-09-27T01:54:02.455Z,58.05
2017-09-27T01:55:05.068Z,62.95
2017-09-27T01:56:07.896Z,63.10
2017-09-27T01:57:10.573Z,64.28
2017-09-27T01:58:13.189Z,61.22
2017-09-27T01:59:15.813Z,64.80
2017-09-27T02:00:18.770Z,66.45
2017-09-27T02:01:21.372Z,63.25
2017-09-27T02:02:24.876Z,62.25
2017-09-27T02:03:27.402Z,62.13
2017-09-27T02:04:32.239Z,61.03
2017-09-27T02:05:35.547Z,60.03
2017-09-27T02:06:38.318Z,58.75
2017-09-27T02:07:40.931Z,61.37
2017-09-27T02:08:43.533Z,62.42
2017-09-27T02:09:46.842Z,61.08
2017-09-27T02:10:50.226Z,58.87
2017-09-27T02:11:52.755Z,61.83
2017-09-27T02:12:55.428Z,62.20
2017-09-27T02:13:58.773Z,60.58
2017-09-27T02:15:01.339Z,59.22
2017-09-27T02:16:03.842Z,60.67
2017-09-27T02:17:07.779Z,62.00
2017-09-27T02:18:10.287Z,60.85
2017-09-27T02:19:12.967Z,61.95
2017-09-27T02:20:16.263Z,65.40
2017-09-27T02:21:19.883Z,60.90
2017-09-27T02:22:22.462Z,58.95
2017-09-27T02:23:25.330Z,61.28
2017-09-27T02:24:27.862Z,61.55
2017-09-27T02:25:30.526Z,65.00
2017-09-27T02:26:33.031Z,64.45
2017-09-27T02:27:35.856Z,60.50
2017-09-27T02:28:38.374Z,58.70
2017-09-27T02:29:41.241Z,64.03
2017-09-27T02:30:43.755Z,63.00
2017-09-27T02:31:51.961Z,63.72
2017-09-27T02:32:54.576Z,60.25
2017-09-27T02:33:59.255Z,62.13
2017-09-27T02:35:01.767Z,58.50
2017-09-27T02:36:04.635Z,59.63
2017-09-27T02:37:07.303Z,60.47
2017-09-27T02:38:10.069Z,58.03
2017-09-27T02:39:12.658Z,58.87
2017-09-27T02:40:15.276Z,61.83
2017-09-27T02:41:18.588Z,64.05
2017-09-27T02:42:21.401Z,59.53
2017-09-27T02:43:24.066Z,61.78
2017-09-27T02:44:26.985Z,58.28
2017-09-27T02:45:30.339Z,59.13
2017-09-27T02:46:33.167Z,60.38
2017-09-27T02:47:35.737Z,61.53
2017-09-27T02:48:38.578Z,60.53
2017-09-27T02:49:41.931Z,61.28
2017-09-27T02:50:44.712Z,61.42
2017-09-27T02:51:47.298Z,62.92
2017-09-27T02:52:50.722Z,60.67
2017-09-27T02:53:53.289Z,58.87
2017-09-27T02:54:56.019Z,57.72
2017-09-27T02:55:58.591Z,61.15
2017-09-27T02:57:01.332Z,60.25
2017-09-27T02:58:03.875Z,58.33
2017-09-27T02:59:07.635Z,61.97
2017-09-27T03:00:10.907Z,61.40
2017-09-27T03:01:14.471Z,61.45
2017-09-27T03:02:17.097Z,63.75
2017-09-27T03:03:20.042Z,60.70
2017-09-27T03:04:23.310Z,62.58
2017-09-27T03:05:27.137Z,58.87
2017-09-27T03:06:29.675Z,55.97
2017-09-27T03:07:35.795Z,57.72
2017-09-27T03:08:39.096Z,59.28
2017-09-27T03:10:45.030Z,58.53
2017-09-27T03:11:47.527Z,58.10
2017-09-27T03:12:50.045Z,55.85
2017-09-27T03:13:52.686Z,57.25
2017-09-27T03:14:56.090Z,58.80
2017-09-27T03:15:58.634Z,59.35
2017-09-27T03:17:02.094Z,56.97
2017-09-27T03:18:04.856Z,57.35
2017-09-27T03:19:07.358Z,60.72
2017-09-27T03:20:10.813Z,60.50
2017-09-27T03:21:13.435Z,61.85
2017-09-27T03:22:16.142Z,60.08
2017-09-27T03:23:18.672Z,58.03
2017-09-27T03:24:21.172Z,60.55
2017-09-27T03:25:23.702Z,59.92
2017-09-27T03:26:26.279Z,58.33
2017-09-27T03:27:28.772Z,58.13
2017-09-27T03:28:31.539Z,57.42
2017-09-27T03:29:34.027Z,60.58
2017-09-27T03:30:36.541Z,57.60
2017-09-27T03:31:39.075Z,56.80
2017-09-27T03:32:42.550Z,58.03
2017-09-27T03:33:45.260Z,62.13
2017-09-27T03:34:48.030Z,57.67
2017-09-27T03:35:50.596Z,60.72
2017-09-27T03:36:53.270Z,59.50
2017-09-27T03:37:55.844Z,55.45
2017-09-27T03:38:58.604Z,57.55
2017-09-27T03:40:01.179Z,57.83
2017-09-27T03:41:03.918Z,61.50
2017-09-27T03:42:06.441Z,58.75
2017-09-27T03:43:09.285Z,62.33
2017-09-27T03:44:11.852Z,57.83
2017-09-27T03:45:19.027Z,60.17
2017-09-27T03:46:21.519Z,59.30
2017-09-27T03:47:24.193Z,58.63
2017-09-27T03:48:26.730Z,57.05
2017-09-27T03:49:30.218Z,59.40
2017-09-27T03:50:32.806Z,60.12
2017-09-27T03:51:35.491Z,60.58
2017-09-27T03:52:37.971Z,60.03
2017-09-27T03:53:40.535Z,57.65
2017-09-27T03:54:43.032Z,59.15
2017-09-27T03:55:46.644Z,58.80
2017-09-27T03:56:49.256Z,57.30
2017-09-27T03:57:51.834Z,55.50
2017-09-27T03:58:54.760Z,61.80
2017-09-27T03:59:57.633Z,58.58
2017-09-27T04:01:00.194Z,57.92
2017-09-27T04:02:02.816Z,58.53
2017-09-27T04:03:05.340Z,60.00
2017-09-27T04:04:12.353Z,58.13
2017-09-27T04:05:14.865Z,54.42
2017-09-27T04:06:17.482Z,57.97
2017-09-27T04:07:20.817Z,58.17
2017-09-27T04:08:23.423Z,58.60
2017-09-27T04:09:25.919Z,56.15
2017-09-27T04:10:28.408Z,54.80
2017-09-27T04:11:31.194Z,57.13
2017-09-27T04:12:33.764Z,59.13
2017-09-27T04:13:36.477Z,56.80
2017-09-27T04:14:38.989Z,57.08
2017-09-27T04:15:41.499Z,55.72
2017-09-27T04:16:43.982Z,57.45
2017-09-27T04:17:46.590Z,55.70
2017-09-27T04:18:49.361Z,58.33
2017-09-27T04:19:51.894Z,58.70
2017-09-27T04:20:56.615Z,60.35
2017-09-27T04:22:00.723Z,56.42
2017-09-27T04:23:03.310Z,59.65
2017-09-27T04:24:06.178Z,59.40
2017-09-27T04:25:08.816Z,59.20
2017-09-27T04:26:12.438Z,59.83
2017-09-27T04:27:14.915Z,59.95
2017-09-27T04:28:17.556Z,58.22
2017-09-27T04:29:21.542Z,61.90
2017-09-27T04:30:24.100Z,60.67
2017-09-27T04:31:26.587Z,56.80
2017-09-27T04:32:30.990Z,57.95
2017-09-27T04:33:34.266Z,61.60
2017-09-27T04:34:36.918Z,61.45
2017-09-27T04:35:39.426Z,58.78
2017-09-27T04:36:41.974Z,63.13
2017-09-27T04:37:45.387Z,60.40
2017-09-27T04:38:50.065Z,60.55
2017-09-27T04:39:52.675Z,60.40
2017-09-27T04:40:55.520Z,58.03
2017-09-27T04:41:57.999Z,59.22
2017-09-27T04:43:01.347Z,56.45
2017-09-27T04:44:03.837Z,58.47
2017-09-27T04:45:07.300Z,56.42
2017-09-27T04:46:09.919Z,54.55
2017-09-27T04:47:14.235Z,58.30
2017-09-27T04:48:16.730Z,59.25
2017-09-27T04:49:19.667Z,58.53
2017-09-27T04:50:22.154Z,58.75
2017-09-27T04:51:24.901Z,55.47
2017-09-27T04:52:28.105Z,55.83
2017-09-27T04:53:30.808Z,61.22
2017-09-27T04:54:33.323Z,55.83
2017-09-27T04:55:35.834Z,58.38
2017-09-27T04:56:38.352Z,60.25
2017-09-27T04:57:42.084Z,59.33
2017-09-27T04:58:44.573Z,59.20
2017-09-27T04:59:47.185Z,58.70
2017-09-27T05:00:49.851Z,61.00
2017-09-27T05:01:53.396Z,63.03
2017-09-27T05:02:55.884Z,60.72
2017-09-27T05:03:59.407Z,58.33
2017-09-27T05:05:01.902Z,58.13
2017-09-27T05:06:08.061Z,57.25
2017-09-27T05:07:10.580Z,59.60
2017-09-27T05:08:13.079Z,59.08
2017-09-27T05:09:15.604Z,62.00
2017-09-27T05:10:19.405Z,56.63
2017-09-27T05:11:21.931Z,58.17
2017-09-27T05:12:25.638Z,60.65
2017-09-27T05:13:28.124Z,57.62
2017-09-27T05:14:30.798Z,62.10
2017-09-27T05:15:33.351Z,56.70
2017-09-27T05:16:37.815Z,58.53
2017-09-27T05:17:40.349Z,56.55
2017-09-27T05:18:42.871Z,61.17
2017-09-27T05:19:46.195Z,58.42
2017-09-27T05:20:48.854Z,57.05
2017-09-27T05:21:52.373Z,56.97
2017-09-27T05:22:56.432Z,56.40
2017-09-27T05:24:16.584Z,57.35
2017-09-27T05:25:19.458Z,58.40
2017-09-27T05:26:22.145Z,59.08
2017-09-27T05:27:24.632Z,59.97
2017-09-27T05:28:28.069Z,57.05
2017-09-27T05:29:30.602Z,54.85
2017-09-27T05:30:34.404Z,54.70
2017-09-27T05:31:36.894Z,57.65
2017-09-27T05:32:39.761Z,59.08
2017-09-27T05:33:42.268Z,58.50
2017-09-27T05:34:44.998Z,57.03
2017-09-27T05:35:47.916Z,60.03
2017-09-27T05:36:50.860Z,58.28
2017-09-27T05:37:53.953Z,57.38
2017-09-27T05:38:56.627Z,62.15
2017-09-27T05:39:59.139Z,57.83
2017-09-27T05:41:04.125Z,57.92
2017-09-27T05:42:07.467Z,60.95
2017-09-27T05:43:12.273Z,57.30
2017-09-27T05:44:14.827Z,61.50
2017-09-27T05:45:17.561Z,59.17
2017-09-27T05:46:20.043Z,57.30
2017-09-27T05:47:23.624Z,60.70
2017-09-27T05:48:27.048Z,58.97
2017-09-27T05:49:29.814Z,59.58
2017-09-27T05:50:32.378Z,59.42
2017-09-27T05:51:35.191Z,58.83
2017-09-27T05:52:37.717Z,55.75
2017-09-27T05:53:40.487Z,58.50
2017-09-27T05:54:42.970Z,53.60
2017-09-27T05:55:45.489Z,58.58
2017-09-27T05:56:47.969Z,60.85
2017-09-27T05:57:51.412Z,53.40
2017-09-27T05:58:53.938Z,56.37
2017-09-27T05:59:57.688Z,59.47
2017-09-27T06:01:00.287Z,59.60
2017-09-27T06:02:03.612Z,62.62
2017-09-27T06:03:06.102Z,60.75
2017-09-27T06:04:08.717Z,59.50
2017-09-27T06:05:11.289Z,57.45
2017-09-27T06:06:14.029Z,56.28
2017-09-27T06:07:17.337Z,58.38
2017-09-27T06:08:20.007Z,55.15
2017-09-27T06:09:22.575Z,54.88
2017-09-27T06:10:28.702Z,56.70
2017-09-27T06:11:35.244Z,55.97
2017-09-27T06:12:39.954Z,56.55
2017-09-27T06:13:43.528Z,54.65
2017-09-27T06:14:47.323Z,53.38
2017-09-27T06:15:51.891Z,51.20
2017-09-27T06:16:54.596Z,53.28
2017-09-27T06:17:57.441Z,55.80
2017-09-27T06:19:26.152Z,53.38
2017-09-27T06:20:29.467Z,53.58
2017-09-27T06:21:31.969Z,51.88
2017-09-27T06:22:34.723Z,55.28
2017-09-27T06:23:38.195Z,51.50
2017-09-27T06:24:41.904Z,55.35
2017-09-27T06:25:44.608Z,53.03
2017-09-27T06:26:47.248Z,50.78
2017-09-27T06:27:49.746Z,51.85
2017-09-27T06:28:52.471Z,49.45
2017-09-27T06:29:55.741Z,50.58
2017-09-27T06:31:00.389Z,49.72
2017-09-27T06:32:02.884Z,52.55
2017-09-27T06:33:05.695Z,53.20
2017-09-27T06:34:08.226Z,54.70
2017-09-27T06:35:12.289Z,50.20
2017-09-27T06:36:14.823Z,50.83
2017-09-27T06:37:17.583Z,49.50
2017-09-27T06:38:20.127Z,49.00
2017-09-27T06:39:23.991Z,49.22
2017-09-27T06:40:26.508Z,50.58
2017-09-27T06:41:30.356Z,51.13
2017-09-27T06:42:33.083Z,49.25
2017-09-27T06:43:36.541Z,49.45
2017-09-27T06:44:39.076Z,52.92
2017-09-27T06:45:43.181Z,50.33
2017-09-27T06:46:45.657Z,50.35
2017-09-27T06:47:48.161Z,48.72
2017-09-27T06:48:53.511Z,52.47
2017-09-27T06:49:56.290Z,48.83
2017-09-27T06:50:58.926Z,50.65
2017-09-27T06:52:01.624Z,52.35
2017-09-27T06:53:04.163Z,52.53
2017-09-27T06:54:06.653Z,50.47
2017-09-27T06:55:09.156Z,51.70
2017-09-27T06:56:11.990Z,49.88
2017-09-27T06:57:14.554Z,51.72
2017-09-27T06:58:17.065Z,51.58
2017-09-27T06:59:19.570Z,49.47
2017-09-27T07:00:22.055Z,47.20
2017-09-27T07:01:25.184Z,49.17
2017-09-27T07:02:28.098Z,52.92
2017-09-27T07:03:30.612Z,52.15
2017-09-27T07:04:34.059Z,51.90
2017-09-27T07:05:37.526Z,48.95
2017-09-27T07:06:40.268Z,50.22
2017-09-27T07:07:42.841Z,49.78
2017-09-27T07:08:47.433Z,49.70
2017-09-27T07:09:50.707Z,50.25
2017-09-27T07:10:53.517Z,50.30
2017-09-27T07:11:56.016Z,51.17
2017-09-27T07:12:58.749Z,48.60
2017-09-27T07:14:01.261Z,50.88
2017-09-27T07:15:04.090Z,49.70
2017-09-27T07:16:06.628Z,48.17
2017-09-27T07:17:10.009Z,49.17
2017-09-27T07:18:13.296Z,48.03
2017-09-27T07:19:16.609Z,49.45
2017-09-27T07:20:19.536Z,45.88
2017-09-27T07:21:23.149Z,46.22
2017-09-27T07:22:26.450Z,46.00
2017-09-27T07:23:29.123Z,46.60
2017-09-27T07:24:31.610Z,45.55
2017-09-27T07:25:34.475Z,49.55
2017-09-27T07:26:37.765Z,44.58
2017-09-27T07:27:40.384Z,48.95
2017-09-27T07:28:43.651Z,47.47
2017-09-27T07:29:46.354Z,49.53
2017-09-27T07:30:48.941Z,48.33
2017-09-27T07:31:51.687Z,48.70
2017-09-27T07:32:55.399Z,45.38
2017-09-27T07:33:58.504Z,49.25
2017-09-27T07:35:00.985Z,47.33
2017-09-27T07:36:03.551Z,49.88
2017-09-27T07:37:06.897Z,49.72
2017-09-27T07:38:09.843Z,50.80
2017-09-27T07:39:12.449Z,49.55
2017-09-27T07:40:15.581Z,47.45
2017-09-27T07:41:19.137Z,47.22
2017-09-27T07:42:21.883Z,51.13
2017-09-27T07:43:24.734Z,48.13
2017-09-27T07:44:27.992Z,46.90
2017-09-27T07:45:30.492Z,44.67
2017-09-27T07:46:33.078Z,48.20
2017-09-27T07:47:35.610Z,47.17
2017-09-27T07:48:41.239Z,45.90
2017-09-27T07:49:43.721Z,46.25
2017-09-27T07:50:47.108Z,48.92
2017-09-27T07:51:50.405Z,49.40
2017-09-27T07:52:56.708Z,47.92
2017-09-27T07:53:59.209Z,46.08
2017-09-27T07:55:02.853Z,45.97
2017-09-27T07:56:05.494Z,43.85
2017-09-27T07:57:08.012Z,43.80
2017-09-27T07:58:10.541Z,41.60
2017-09-27T07:59:13.346Z,43.75
2017-09-27T08:00:16.635Z,44.45
2017-09-27T08:01:19.355Z,44.83
2017-09-27T08:02:21.917Z,43.63
2017-09-27T08:03:24.689Z,45.58
2017-09-27T08:04:27.190Z,43.85
2017-09-27T08:05:31.793Z,44.10
2017-09-27T08:06:34.313Z,43.00
2017-09-27T08:07:37.180Z,41.53
2017-09-27T08:08:40.492Z,43.58
2017-09-27T08:09:43.371Z,43.05
2017-09-27T08:10:45.865Z,42.00
2017-09-27T08:11:48.477Z,42.55
2017-09-27T08:13:55.371Z,43.63
2017-09-27T08:14:57.941Z,41.20
2017-09-27T08:16:00.674Z,39.72
2017-09-27T08:17:03.159Z,41.05
2017-09-27T08:18:06.602Z,41.03
2017-09-27T08:19:09.151Z,40.78
2017-09-27T08:20:11.670Z,42.90
2017-09-27T08:21:14.981Z,43.22
2017-09-27T08:22:17.619Z,39.40
2017-09-27T08:23:20.902Z,40.12
2017-09-27T08:24:25.297Z,40.33
2017-09-27T08:25:27.914Z,41.37
2017-09-27T08:26:30.476Z,39.53
2017-09-27T08:27:33.119Z,40.55
2017-09-27T08:28:36.375Z,39.03
2017-09-27T08:29:38.927Z,39.08
2017-09-27T08:30:41.423Z,38.78
2017-09-27T08:31:44.098Z,41.22
2017-09-27T08:32:47.837Z,40.80
2017-09-27T08:33:50.427Z,40.28
2017-09-27T08:34:53.031Z,37.97
2017-09-27T08:35:56.305Z,39.65
2017-09-27T08:36:59.013Z,37.28
2017-09-27T08:38:02.290Z,38.25
2017-09-27T08:39:05.528Z,37.35
2017-09-27T08:40:08.014Z,39.92
2017-09-27T08:41:11.491Z,38.10
2017-09-27T08:42:14.008Z,39.15
2017-09-27T08:43:16.544Z,36.08
2017-09-27T08:44:19.954Z,37.67
2017-09-27T08:45:22.610Z,39.55
2017-09-27T08:46:25.903Z,36.65
2017-09-27T08:47:28.560Z,39.80
2017-09-27T08:48:31.212Z,39.75
2017-09-27T08:49:34.756Z,36.53
2017-09-27T08:50:37.253Z,37.08
2017-09-27T08:51:39.831Z,37.75
2017-09-27T08:52:42.314Z,35.55
2017-09-27T08:53:45.166Z,35.65
2017-09-27T08:54:48.535Z,35.28
2017-09-27T08:55:51.028Z,34.15
2017-09-27T08:56:54.547Z,32.97
2017-09-27T08:57:58.275Z,34.10
2017-09-27T08:59:00.758Z,36.20
2017-09-27T09:00:05.000Z,35.17
2017-09-27T09:01:08.263Z,34.33
2017-09-27T09:02:11.891Z,33.50
2017-09-27T09:03:14.446Z,32.97
2017-09-27T09:04:17.205Z,32.17
2017-09-27T09:05:20.512Z,32.00
2017-09-27T09:06:23.584Z,32.97
2017-09-27T09:07:26.063Z,31.75
2017-09-27T09:08:28.657Z,34.83
2017-09-27T09:09:31.137Z,33.38
2017-09-27T09:10:34.161Z,34.25
2017-09-27T09:11:38.364Z,35.55
2017-09-27T09:12:41.200Z,33.88
2017-09-27T09:13:43.698Z,33.45
2017-09-27T09:14:46.198Z,32.55
2017-09-27T09:15:51.035Z,33.53
2017-09-27T09:16:53.620Z,30.80
2017-09-27T09:17:56.368Z,31.65
2017-09-27T09:18:58.882Z,34.22
2017-09-27T09:20:05.707Z,28.10
2017-09-27T09:21:08.223Z,27.98
2017-09-27T09:22:11.199Z,30.73
2017-09-27T09:23:13.699Z,29.55
2017-09-27T09:24:27.503Z,24.70
2017-09-27T09:25:30.019Z,29.17
2017-09-27T09:26:32.785Z,29.00
2017-09-27T09:27:35.276Z,27.45
2017-09-27T09:28:38.744Z,27.55
2017-09-27T09:29:42.081Z,29.60
2017-09-27T09:30:44.795Z,31.35
2017-09-27T09:31:47.316Z,31.02
2017-09-27T09:32:51.001Z,30.95
2017-09-27T09:33:53.502Z,31.33
2017-09-27T09:34:58.474Z,27.85
2017-09-27T09:36:00.993Z,27.23
2017-09-27T09:37:04.040Z,32.05
2017-09-27T09:38:07.071Z,24.98
2017-09-27T09:39:10.906Z,28.80
2017-09-27T09:40:13.723Z,29.40
2017-09-27T09:41:16.840Z,29.52
2017-09-27T09:42:19.549Z,26.42
2017-09-27T09:43:23.258Z,31.33
2017-09-27T09:44:26.169Z,29.73
2017-09-27T09:45:30.277Z,28.95
2017-09-27T09:46:33.582Z,30.25
2017-09-27T09:47:37.216Z,29.45
2017-09-27T09:48:39.745Z,27.70
2017-09-27T09:49:42.568Z,27.85
2017-09-27T09:50:45.186Z,24.87
2017-09-27T09:51:47.962Z,23.00
2017-09-27T09:52:50.507Z,26.45
2017-09-27T09:53:53.236Z,24.65
2017-09-27T09:54:55.790Z,28.75
2017-09-27T09:55:58.565Z,28.80
2017-09-27T09:57:01.105Z,28.90
2017-09-27T09:58:04.124Z,30.45
2017-09-27T09:59:06.741Z,30.92
2017-09-27T10:00:09.598Z,28.77
2017-09-27T10:01:12.116Z,29.33
2017-09-27T10:02:15.275Z,30.58
2017-09-27T10:03:17.828Z,26.83
2017-09-27T10:04:20.563Z,29.60
2017-09-27T10:05:23.083Z,28.65
2017-09-27T10:06:26.043Z,29.75
2017-09-27T10:07:28.546Z,29.98
2017-09-27T10:08:32.167Z,30.77
2017-09-27T10:09:35.562Z,30.90
2017-09-27T10:10:39.042Z,28.80
2017-09-27T10:11:42.358Z,30.20
2017-09-27T10:12:44.981Z,28.60
2017-09-27T10:13:47.479Z,29.30
2017-09-27T10:14:49.991Z,29.80
2017-09-27T10:15:52.779Z,30.42
2017-09-27T10:16:55.298Z,28.17
2017-09-27T10:17:58.072Z,30.33
2017-09-27T10:19:00.715Z,28.23
2017-09-27T10:20:04.427Z,26.60
2017-09-27T10:21:07.001Z,28.13
2017-09-27T10:22:09.641Z,29.77
2017-09-27T10:23:12.913Z,29.00
2017-09-27T10:24:15.630Z,26.80
2017-09-27T10:25:18.118Z,28.87
2017-09-27T10:26:20.910Z,28.13
2017-09-27T10:27:23.388Z,28.33
2017-09-27T10:28:26.856Z,28.13
2017-09-27T10:29:29.343Z,27.17
2017-09-27T10:30:32.869Z,28.30
2017-09-27T10:31:35.368Z,28.43
2017-09-27T10:32:38.180Z,29.23
2017-09-27T10:33:40.783Z,27.83
2017-09-27T10:34:44.462Z,29.83
2017-09-27T10:35:57.321Z,28.83
2017-09-27T10:36:59.848Z,29.83
2017-09-27T10:38:02.540Z,27.73
2017-09-27T10:39:05.549Z,27.17
2017-09-27T10:40:08.187Z,27.75
2017-09-27T10:41:10.716Z,27.10
2017-09-27T10:42:13.524Z,27.20
2017-09-27T10:43:16.063Z,26.95
2017-09-27T10:44:18.905Z,28.15
2017-09-27T10:45:22.166Z,29.33
2017-09-27T10:46:24.888Z,30.27
2017-09-27T10:47:27.389Z,30.02
2017-09-27T10:48:30.198Z,28.40
2017-09-27T10:49:33.502Z,26.55
2017-09-27T10:50:36.168Z,29.00
2017-09-27T10:51:38.686Z,28.25
2017-09-27T10:52:41.491Z,28.92
2017-09-27T10:53:44.814Z,30.00
2017-09-27T10:54:49.723Z,28.70
2017-09-27T10:55:52.395Z,29.90
2017-09-27T10:56:55.368Z,29.80
2017-09-27T10:57:57.936Z,29.58
2017-09-27T10:59:05.619Z,30.10
2017-09-27T11:00:08.177Z,29.95
2017-09-27T11:01:10.843Z,30.25
2017-09-27T11:02:14.159Z,31.08
2017-09-27T11:03:17.693Z,28.95
2017-09-27T11:04:20.210Z,30.75
2017-09-27T11:05:23.009Z,31.50
2017-09-27T11:06:25.541Z,32.67
2017-09-27T11:07:28.442Z,33.25
2017-09-27T11:08:31.669Z,30.70
2017-09-27T11:09:35.434Z,30.15
2017-09-27T11:10:37.928Z,32.15
2017-09-27T11:11:41.511Z,30.75
2017-09-27T11:12:44.028Z,29.90
2017-09-27T11:13:47.286Z,29.42
2017-09-27T11:14:49.859Z,31.48
2017-09-27T11:15:52.373Z,33.25
2017-09-27T11:16:55.132Z,31.80
2017-09-27T11:17:57.611Z,30.98
2017-09-27T11:19:01.457Z,31.67
2017-09-27T11:20:04.542Z,31.73
2017-09-27T11:21:07.418Z,32.78
2017-09-27T11:22:09.909Z,33.13
2017-09-27T11:23:12.714Z,31.35
2017-09-27T11:24:16.035Z,31.45
2017-09-27T11:25:23.030Z,29.90
2017-09-27T11:26:26.088Z,31.73
2017-09-27T11:27:29.006Z,28.62
2017-09-27T11:28:31.498Z,29.73
2017-09-27T11:29:34.400Z,30.25
2017-09-27T11:30:36.957Z,27.25
2017-09-27T11:31:39.587Z,27.15
2017-09-27T11:32:42.121Z,28.87
2017-09-27T11:33:44.944Z,29.98
2017-09-27T11:34:48.220Z,28.77
2017-09-27T11:35:51.846Z,29.48
2017-09-27T11:36:54.357Z,29.75
2017-09-27T11:37:57.184Z,29.92
2017-09-27T11:38:59.975Z,28.30
2017-09-27T11:40:04.598Z,26.77
2017-09-27T11:41:07.132Z,28.80
2017-09-27T11:42:09.689Z,27.50
2017-09-27T11:43:13.522Z,26.80
2017-09-27T11:44:16.271Z,26.75
2017-09-27T11:45:18.775Z,27.23
2017-09-27T11:46:21.743Z,27.45
2017-09-27T11:47:24.385Z,28.42
2017-09-27T11:48:28.213Z,28.10
2017-09-27T11:49:30.961Z,26.33
2017-09-27T11:50:35.151Z,26.10
2017-09-27T11:51:37.960Z,26.85
2017-09-27T11:52:40.669Z,26.15
2017-09-27T11:53:44.267Z,26.05
2017-09-27T11:54:47.046Z,25.37
2017-09-27T11:55:50.726Z,24.75
2017-09-27T11:56:57.977Z,26.30
2017-09-27T11:58:00.706Z,26.25
2017-09-27T11:59:04.697Z,27.17
2017-09-27T12:00:08.104Z,25.88
2017-09-27T12:01:11.845Z,27.42
2017-09-27T12:02:15.148Z,25.98
2017-09-27T12:03:18.999Z,24.25
2017-09-27T12:04:22.472Z,26.55
2017-09-27T12:05:25.588Z,27.02
2017-09-27T12:06:31.413Z,27.25
2017-09-27T12:07:34.197Z,26.83
2017-09-27T12:08:36.714Z,25.67
2017-09-27T12:09:48.625Z,26.23
2017-09-27T12:10:51.649Z,25.98
2017-09-27T12:11:55.499Z,26.42
2017-09-27T12:12:58.066Z,25.77
2017-09-27T12:14:00.851Z,25.33
2017-09-27T12:15:03.373Z,25.27
2017-09-27T12:16:07.566Z,24.60
2017-09-27T12:17:13.504Z,26.12
2017-09-27T12:18:18.716Z,25.30
2017-09-27T12:19:21.975Z,25.25
2017-09-27T12:20:24.816Z,28.38
2017-09-27T12:21:28.499Z,25.00
2017-09-27T12:22:31.116Z,25.37
2017-09-27T12:23:36.081Z,26.27
2017-09-27T12:24:40.353Z,26.05
2017-09-27T12:25:45.827Z,25.80
2017-09-27T12:26:49.794Z,26.55
2017-09-27T12:27:52.448Z,25.62
2017-09-27T12:28:55.015Z,25.83
2017-09-27T12:29:57.848Z,24.45
2017-09-27T12:31:01.431Z,24.83
2017-09-27T12:32:04.046Z,25.55
2017-09-27T12:33:06.562Z,25.23
2017-09-27T12:34:09.262Z,24.67
2017-09-27T12:35:11.996Z,23.60
2017-09-27T12:36:15.434Z,24.10
2017-09-27T12:37:18.027Z,24.35
2017-09-27T12:38:20.699Z,24.92
2017-09-27T12:39:23.765Z,25.37
2017-09-27T12:40:26.555Z,24.00
2017-09-27T12:41:29.126Z,22.55
2017-09-27T12:42:32.191Z,24.33
2017-09-27T12:43:35.443Z,25.55
2017-09-27T12:44:38.753Z,25.90
2017-09-27T12:45:41.287Z,24.98
2017-09-27T12:46:49.840Z,23.60
2017-09-27T12:47:52.597Z,23.95
2017-09-27T12:48:56.504Z,23.02
2017-09-27T12:49:59.171Z,23.62
2017-09-27T12:51:05.576Z,24.35
2017-09-27T12:52:08.912Z,22.73
2017-09-27T12:53:11.796Z,22.87
2017-09-27T12:54:14.328Z,22.30
2017-09-27T12:55:17.741Z,22.17
2017-09-27T12:56:20.250Z,21.70
2017-09-27T12:57:22.898Z,24.73
2017-09-27T12:58:25.431Z,24.83
2017-09-27T12:59:28.407Z,24.10
2017-09-27T13:00:30.937Z,24.40
2017-09-27T13:01:34.492Z,25.30
2017-09-27T13:02:37.966Z,24.55
2017-09-27T13:03:40.628Z,23.20
2017-09-27T13:04:43.154Z,23.62
2017-09-27T13:05:47.566Z,23.35
2017-09-27T13:06:50.940Z,24.10
2017-09-27T13:07:53.565Z,24.27
2017-09-27T13:08:56.162Z,22.35
2017-09-27T13:09:58.833Z,22.80
2017-09-27T13:11:01.631Z,25.60
2017-09-27T13:12:05.136Z,22.25
2017-09-27T13:13:07.779Z,22.35
2017-09-27T13:14:10.882Z,23.00
2017-09-27T13:15:13.425Z,24.02
2017-09-27T13:16:16.126Z,21.75
2017-09-27T13:17:18.639Z,21.52
2017-09-27T13:18:21.510Z,21.87
2017-09-27T13:19:25.297Z,25.00
2017-09-27T13:20:29.833Z,22.45
2017-09-27T13:21:32.372Z,23.65
2017-09-27T13:22:35.744Z,24.27
2017-09-27T13:23:38.706Z,23.10
2017-09-27T13:24:43.265Z,22.27
2017-09-27T13:25:45.846Z,23.90
2017-09-27T13:26:48.606Z,25.73
2017-09-27T13:27:51.623Z,31.30
2017-09-27T13:28:54.330Z,31.12
2017-09-27T13:29:56.883Z,36.40
2017-09-27T13:30:59.601Z,26.75
2017-09-27T13:32:02.105Z,26.95
2017-09-27T13:33:04.947Z,22.30
2017-09-27T13:34:07.621Z,23.42
2017-09-27T13:35:12.000Z,23.30